sim
Sign-in with your pilot id or email,
or register
Callsign
Passwort

Schedule Details

Flight Number: OEO4665
Departure: Basel Mulhouse-Freiburg EuroAirport (LFSB) at 14:55
Arrival: Munich Airport (EDDM) at 16:05

Weather Information
Getting current METAR information for LFSB 190430Z AUTO VRB01KT CAVOK 12/11 Q1018 NOSIG
Getting current METAR information for EDDM 190420Z 31002KT CAVOK 05/04 Q1020 NOSIG

Schedule Frequency

Route Map